Time;durP1;ratioP1;P1;durP2;ratioP2;P2;SDS_P1;SDS_P2;PMS_P1;PMS_P2;Temp;Humidity;BMP_temperature;BMP_pressure;BME280_temperature;BME280_humidity;BME280_pressure;Samples;Min_cycle;Max_cycle;Signal;HPM_P1;HPM_P2
2022/04/10 00:01:38;;;;;;;13.60;2.40;;;;;;;2.27;78.59;98620.09;104754;1274;68222;-63
2022/04/10 00:04:26;;;;;;;13.90;2.40;;;;;;;2.28;78.24;98617.91;104925;1274;72489;-64
2022/04/10 00:07:14;;;;;;;10.20;2.00;;;;;;;2.27;77.97;98617.83;104900;1274;59662;-62
2022/04/10 00:10:04;;;;;;;11.50;2.10;;;;;;;2.23;78.20;98611.98;104922;1274;59666;-63
2022/04/10 00:12:51;;;;;;;9.60;1.90;;;;;;;2.19;78.08;98613.24;104763;1275;74761;-63
2022/04/10 00:15:39;;;;;;;15.20;2.40;;;;;;;2.16;78.34;98616.05;105959;1274;69646;-64
2022/04/10 00:18:28;;;;;;;13.10;2.30;;;;;;;2.18;78.22;98619.23;107084;1274;73468;-66
2022/04/10 00:21:16;;;;;;;9.30;2.10;;;;;;;2.23;77.97;98622.98;107006;1274;59753;-64
2022/04/10 00:24:05;;;;;;;9.80;2.10;;;;;;;2.27;77.98;98621.66;106945;1274;60300;-65
2022/04/10 00:26:53;;;;;;;8.70;2.10;;;;;;;2.31;77.58;98621.58;106170;1274;72107;-64
2022/04/10 00:29:42;;;;;;;9.50;1.80;;;;;;;2.32;77.48;98624.81;104768;1274;68710;-65
2022/04/10 00:32:30;;;;;;;10.10;2.00;;;;;;;2.31;77.29;98618.04;104770;1274;72096;-64
2022/04/10 00:35:18;;;;;;;8.40;2.00;;;;;;;2.30;77.19;98615.67;104601;1275;59803;-64
2022/04/10 00:38:07;;;;;;;8.20;1.90;;;;;;;2.27;77.26;98618.86;104596;1274;61848;-64
2022/04/10 00:40:56;;;;;;;12.20;2.50;;;;;;;2.23;77.49;98623.34;104698;1275;72325;-64
2022/04/10 00:44:09;;;;;;;11.30;2.50;;;;;;;2.22;77.97;98624.77;104553;1275;67252;-63
2022/04/10 00:46:56;;;;;;;8.60;1.80;;;;;;;2.22;78.66;98623.02;104901;1275;72473;-64
2022/04/10 00:49:45;;;;;;;12.50;2.20;;;;;;;2.20;79.52;98623.86;104764;1275;60111;-66
2022/04/10 00:52:34;;;;;;;9.40;2.00;;;;;;;2.19;80.02;98628.84;104735;1274;60509;-67
2022/04/10 00:55:22;;;;;;;9.30;1.90;;;;;;;2.18;80.75;98625.89;104802;1275;74955;-64
2022/04/10 00:58:10;;;;;;;8.90;2.10;;;;;;;2.18;81.04;98630.86;104734;1275;66723;-64
2022/04/10 01:00:58;;;;;;;11.90;2.30;;;;;;;2.13;81.63;98626.94;104738;1275;73582;-63
2022/04/10 01:03:47;;;;;;;11.20;2.50;;;;;;;2.09;82.01;98625.48;104742;1274;59777;-64
2022/04/10 01:06:35;;;;;;;14.90;2.10;;;;;;;2.04;82.40;98633.29;104685;1273;60624;-64
2022/04/10 01:09:31;;;;;;;7.70;1.70;;;;;;;2.03;82.31;98628.64;104719;1274;73107;-65
2022/04/10 01:12:19;;;;;;;9.30;2.50;;;;;;;2.02;82.82;98632.38;104551;1274;69568;-66
2022/04/10 01:15:11;;;;;;;10.60;2.40;;;;;;;2.01;83.22;98633.80;104496;1275;71812;-67
2022/04/10 01:18:03;;;;;;;12.20;2.70;;;;;;;2.01;83.26;98631.52;104909;1275;59745;-64
2022/04/10 01:20:52;;;;;;;16.70;2.40;;;;;;;2.02;83.55;98631.00;104686;1275;61352;-64
2022/04/10 01:23:44;;;;;;;9.80;2.50;;;;;;;2.06;83.70;98639.82;104699;1275;73928;-65
2022/04/10 01:26:32;;;;;;;11.40;2.20;;;;;;;2.09;83.95;98634.38;104684;1274;69522;-66
2022/04/10 01:29:20;;;;;;;9.20;2.00;;;;;;;2.12;84.55;98635.98;104698;1275;73495;-65
2022/04/10 01:32:08;;;;;;;11.50;2.40;;;;;;;2.11;86.34;98650.00;104921;1274;59785;-64
2022/04/10 01:35:01;;;;;;;10.80;1.80;;;;;;;2.04;87.56;98656.02;104694;1274;61909;-64
2022/04/10 01:37:50;;;;;;;8.90;2.30;;;;;;;1.93;88.92;98655.21;104544;1274;73663;-65
2022/04/10 01:40:43;;;;;;;12.10;2.10;;;;;;;1.81;89.71;98652.09;104706;1274;68596;-61
2022/04/10 01:43:31;;;;;;;8.10;1.80;;;;;;;1.73;89.89;98653.48;104719;1274;74260;-66
2022/04/10 01:46:20;;;;;;;9.90;2.50;;;;;;;1.68;90.31;98652.58;104747;1274;59673;-65
2022/04/10 01:49:09;;;;;;;9.00;2.70;;;;;;;1.63;91.21;98660.74;104724;1275;60583;-66
2022/04/10 01:51:57;;;;;;;10.10;2.40;;;;;;;1.59;90.86;98658.77;104608;1275;73805;-64
2022/04/10 01:54:45;;;;;;;11.30;2.70;;;;;;;1.57;91.15;98653.08;104714;1275;68195;-63
2022/04/10 01:57:33;;;;;;;10.00;2.10;;;;;;;1.57;91.24;98662.73;104604;1275;74067;-64
2022/04/10 02:00:21;;;;;;;13.70;2.80;;;;;;;1.55;91.45;98662.13;104605;1275;59668;-65
2022/04/10 02:03:09;;;;;;;8.40;2.30;;;;;;;1.56;90.90;98664.01;104577;1275;60240;-60
2022/04/10 02:06:02;;;;;;;8.10;1.90;;;;;;;1.57;91.01;98672.16;104961;1274;73749;-64
2022/04/10 02:08:50;;;;;;;15.50;2.30;;;;;;;1.59;90.78;98668.85;104758;1274;68090;-64
2022/04/10 02:11:39;;;;;;;13.40;2.70;;;;;;;1.61;90.82;98671.02;104566;1275;73612;-63
2022/04/10 02:14:28;;;;;;;9.40;2.50;;;;;;;1.62;91.10;98673.05;104669;1275;59687;-64
2022/04/10 02:17:16;;;;;;;10.00;2.20;;;;;;;1.62;91.66;98679.69;104909;1275;59787;-64
2022/04/10 02:20:05;;;;;;;12.90;2.60;;;;;;;1.60;92.63;98677.74;104644;1275;73572;-63
2022/04/10 02:22:53;;;;;;;10.10;2.20;;;;;;;1.56;92.46;98673.80;104673;1274;69168;-65
2022/04/10 02:25:41;;;;;;;9.90;2.00;;;;;;;1.50;92.83;98673.83;104704;1275;72340;-64
2022/04/10 02:28:30;;;;;;;8.30;2.00;;;;;;;1.45;93.11;98670.98;104661;1275;59762;-66
2022/04/10 02:31:18;;;;;;;10.40;2.20;;;;;;;1.44;93.26;98674.02;104804;1275;61907;-64
2022/04/10 02:34:06;;;;;;;9.30;2.10;;;;;;;1.40;92.89;98670.73;104862;1275;74783;-66
2022/04/10 02:36:54;;;;;;;9.50;2.10;;;;;;;1.39;92.87;98670.66;104861;1274;66768;-65
2022/04/10 02:39:43;;;;;;;11.10;3.00;;;;;;;1.38;92.40;98667.75;104863;1275;74008;-63
2022/04/10 02:42:34;;;;;;;9.90;2.50;;;;;;;1.38;92.09;98669.88;104694;1275;59654;-65
2022/04/10 02:45:22;;;;;;;11.90;2.30;;;;;;;1.37;92.19;98666.88;104740;1275;62607;-65
2022/04/10 02:48:10;;;;;;;9.30;2.00;;;;;;;1.38;91.90;98659.86;104698;1275;73491;-64
2022/04/10 02:50:59;;;;;;;14.20;3.10;;;;;;;1.38;91.49;98662.01;104693;1275;67487;-63
2022/04/10 02:53:47;;;;;;;12.10;2.80;;;;;;;1.38;91.45;98659.72;104660;1274;74493;-65
2022/04/10 02:56:35;;;;;;;11.60;2.40;;;;;;;1.39;91.16;98661.93;104709;1275;59686;-66
2022/04/10 02:59:24;;;;;;;10.50;2.60;;;;;;;1.41;90.83;98657.79;104535;1275;60855;-64
2022/04/10 03:02:12;;;;;;;11.20;2.10;;;;;;;1.40;91.20;98656.08;104691;1275;72674;-64
2022/04/10 03:05:00;;;;;;;7.50;1.80;;;;;;;1.37;91.55;98665.88;104695;1274;66895;-64
2022/04/10 03:07:49;;;;;;;7.30;1.70;;;;;;;1.32;91.66;98661.62;104659;1276;73548;-64
2022/04/10 03:10:36;;;;;;;11.00;2.20;;;;;;;1.27;91.96;98668.02;104620;1275;59685;-63
2022/04/10 03:13:24;;;;;;;8.00;2.60;;;;;;;1.24;92.06;98674.20;104724;1274;60269;-65
2022/04/10 03:16:13;;;;;;;10.30;2.70;;;;;;;1.19;92.06;98672.05;104614;1275;74829;-65
2022/04/10 03:19:04;;;;;;;8.70;1.90;;;;;;;1.15;92.09;98670.89;104682;1274;68746;-65
2022/04/10 03:21:52;;;;;;;8.40;2.20;;;;;;;1.11;92.06;98680.91;104657;1274;71555;-64
2022/04/10 03:24:41;;;;;;;8.30;2.50;;;;;;;1.07;92.07;98682.05;104711;1275;59777;-66
2022/04/10 03:27:29;;;;;;;10.40;2.40;;;;;;;1.07;92.13;98678.55;103992;1275;1003493;-64
2022/04/10 03:30:17;;;;;;;12.00;2.40;;;;;;;1.08;92.32;98684.92;106408;1274;73754;-63
2022/04/10 03:33:06;;;;;;;12.20;2.40;;;;;;;1.11;92.54;98691.95;106156;1274;68432;-65
2022/04/10 03:35:55;;;;;;;9.70;2.60;;;;;;;1.18;92.60;98692.72;105890;1274;73225;-64
2022/04/10 03:38:44;;;;;;;9.80;2.20;;;;;;;1.25;92.94;98700.52;106073;1275;59780;-64
2022/04/10 03:41:32;;;;;;;8.60;2.10;;;;;;;1.25;93.18;98695.63;105030;1275;61110;-63
2022/04/10 03:44:20;;;;;;;9.80;1.90;;;;;;;1.22;93.31;98701.08;104734;1275;73633;-63
2022/04/10 03:47:08;;;;;;;7.00;2.30;;;;;;;1.19;93.60;98704.17;104722;1275;66777;-63
2022/04/10 03:49:57;;;;;;;12.50;2.60;;;;;;;1.18;93.36;98707.59;104648;1276;72357;-63
2022/04/10 03:52:45;;;;;;;7.50;2.00;;;;;;;1.16;93.42;98699.49;104554;1275;59809;-68
2022/04/10 03:55:33;;;;;;;8.70;2.10;;;;;;;1.17;93.03;98708.18;104616;1275;60562;-64
2022/04/10 03:58:23;;;;;;;8.00;2.00;;;;;;;1.17;92.81;98711.81;104596;1275;73820;-64
2022/04/10 04:01:11;;;;;;;9.70;2.20;;;;;;;1.19;92.62;98712.77;104613;1275;68672;-66
2022/04/10 04:04:00;;;;;;;8.80;2.00;;;;;;;1.20;92.61;98720.88;104587;1275;73602;-65
2022/04/10 04:06:47;;;;;;;8.30;1.80;;;;;;;1.22;92.56;98726.73;104656;1274;60474;-64
2022/04/10 04:09:36;;;;;;;12.30;2.50;;;;;;;1.24;92.38;98726.48;104666;1274;60702;-63
2022/04/10 04:12:24;;;;;;;9.20;1.80;;;;;;;1.26;92.35;98731.07;104682;1275;72798;-64
2022/04/10 04:15:12;;;;;;;9.80;2.50;;;;;;;1.32;92.11;98729.28;104791;1275;68621;-66
2022/04/10 04:18:00;;;;;;;8.20;2.00;;;;;;;1.40;92.06;98733.02;104680;1274;73726;-65
2022/04/10 04:20:48;;;;;;;9.20;1.90;;;;;;;1.46;91.95;98737.53;104655;1274;59648;-67
2022/04/10 04:23:36;;;;;;;12.10;2.40;;;;;;;1.56;91.64;98740.25;104695;1274;59649;-66
2022/04/10 04:26:25;;;;;;;12.50;2.10;;;;;;;1.70;91.23;98745.66;104715;1274;72731;-66
2022/04/10 04:29:14;;;;;;;8.00;2.00;;;;;;;1.84;91.02;98752.14;104640;1275;68630;-67
2022/04/10 04:32:03;;;;;;;9.50;2.80;;;;;;;1.90;90.96;98752.85;104675;1275;73968;-64
2022/04/10 04:34:51;;;;;;;10.70;2.50;;;;;;;1.91;91.03;98759.42;104653;1274;60027;-66
2022/04/10 04:37:40;;;;;;;9.10;1.90;;;;;;;1.92;91.41;98764.62;104586;1275;60562;-65
2022/04/10 04:40:32;;;;;;;8.30;2.00;;;;;;;1.93;91.55;98767.50;104576;1274;75104;-68
2022/04/10 04:43:21;;;;;;;8.70;2.50;;;;;;;2.01;90.80;98773.82;104883;1274;67445;-65
2022/04/10 04:46:09;;;;;;;9.60;2.20;;;;;;;2.08;90.47;98777.44;104851;1274;73416;-66
2022/04/10 04:48:57;;;;;;;12.10;2.50;;;;;;;2.13;89.76;98777.28;104587;1274;60212;-64
2022/04/10 04:51:45;;;;;;;12.00;2.40;;;;;;;2.19;89.45;98783.52;104631;1274;60506;-65
2022/04/10 04:54:34;;;;;;;9.50;2.00;;;;;;;2.22;89.08;98785.23;104671;1274;74813;-67
2022/04/10 04:57:22;;;;;;;8.10;1.80;;;;;;;2.25;88.50;98794.54;104634;1275;68607;-67
2022/04/10 05:00:12;;;;;;;9.80;2.00;;;;;;;2.27;88.63;98795.29;104582;1275;72937;-69
2022/04/10 05:03:06;;;;;;;8.00;1.80;;;;;;;2.31;88.24;98805.71;104653;1274;59729;-66
2022/04/10 05:05:54;;;;;;;12.20;2.40;;;;;;;2.38;87.98;98808.22;104638;1274;62068;-64
2022/04/10 05:08:46;;;;;;;7.90;1.90;;;;;;;2.48;87.03;98810.56;104645;1275;72393;-65
2022/04/10 05:11:34;;;;;;;9.80;2.00;;;;;;;2.63;86.27;98819.41;104589;1275;68403;-66
2022/04/10 05:14:23;;;;;;;9.60;2.20;;;;;;;2.79;85.23;98815.39;104644;1274;73799;-64
2022/04/10 05:17:12;;;;;;;10.00;1.90;;;;;;;2.88;84.58;98816.76;104637;1274;59738;-65
2022/04/10 05:20:06;;;;;;;8.60;2.20;;;;;;;2.89;83.82;98816.81;104668;1274;61030;-64
2022/04/10 05:23:03;;;;;;;11.60;2.60;;;;;;;3.05;83.46;98814.96;104804;1275;72656;-66
2022/04/10 05:25:54;;;;;;;8.20;2.30;;;;;;;3.30;82.21;98816.44;104652;1275;68647;-67
2022/04/10 05:28:42;;;;;;;9.50;2.10;;;;;;;3.51;80.93;98823.80;104553;1275;74927;-70
2022/04/10 05:31:30;;;;;;;13.60;2.20;;;;;;;3.63;80.18;98828.57;104627;1274;59805;-67
2022/04/10 05:34:21;;;;;;;9.30;1.70;;;;;;;3.81;79.33;98828.21;104660;1275;60535;-64
2022/04/10 05:37:09;;;;;;;9.80;2.40;;;;;;;3.97;78.62;98832.73;104601;1274;75091;-64
2022/04/10 05:40:04;;;;;;;8.20;2.00;;;;;;;4.10;77.51;98843.23;104742;1275;68657;-64
2022/04/10 05:42:53;;;;;;;9.50;2.70;;;;;;;4.07;77.52;98845.34;104574;1274;74129;-67
2022/04/10 05:45:41;;;;;;;10.40;2.60;;;;;;;4.05;77.21;98846.86;104709;1274;60443;-66
2022/04/10 05:48:30;;;;;;;8.50;2.00;;;;;;;4.16;76.56;98850.54;104576;1275;61074;-68
2022/04/10 05:51:17;;;;;;;9.10;2.20;;;;;;;4.36;76.09;98849.84;104828;1274;72784;-66
2022/04/10 05:54:06;;;;;;;10.30;2.30;;;;;;;4.49;75.07;98855.92;104861;1274;68985;-70
2022/04/10 05:56:58;;;;;;;9.80;2.80;;;;;;;4.60;74.40;98853.38;104751;1274;74573;-66
2022/04/10 05:59:46;;;;;;;11.40;2.60;;;;;;;4.72;73.72;98859.20;104919;1275;59815;-67
2022/04/10 06:02:35;;;;;;;10.90;2.80;;;;;;;4.87;73.00;98864.99;104963;1275;60484;-65
2022/04/10 06:05:23;;;;;;;8.80;2.20;;;;;;;5.04;72.48;98863.89;104208;1274;1003323;-70
2022/04/10 06:08:24;;;;;;;11.60;2.40;;;;;;;5.21;71.33;98869.88;104743;1275;68599;-68
2022/04/10 06:11:12;;;;;;;14.80;3.10;;;;;;;5.37;71.36;98880.77;104874;1274;74725;-69
2022/04/10 06:14:01;;;;;;;9.20;2.30;;;;;;;5.61;70.05;98869.52;104863;1274;59614;-65
2022/04/10 06:16:49;;;;;;;9.70;2.30;;;;;;;5.70;69.20;98873.07;104727;1274;62152;-68
2022/04/10 06:19:39;;;;;;;11.20;2.20;;;;;;;5.85;69.21;98873.11;104633;1275;74142;-66
2022/04/10 06:22:31;;;;;;;11.00;2.50;;;;;;;6.06;67.33;98866.95;104929;1274;69649;-68
2022/04/10 06:25:20;;;;;;;10.90;2.60;;;;;;;7.20;63.78;98871.58;104959;1274;72996;-69
2022/04/10 06:28:10;;;;;;;10.50;2.30;;;;;;;9.01;57.38;98868.46;104598;1275;59770;-70
2022/04/10 06:31:02;;;;;;;10.60;2.60;;;;;;;10.30;53.30;98867.45;104842;1274;60504;-68
2022/04/10 06:33:56;;;;;;;11.60;2.50;;;;;;;10.95;49.93;98866.61;104880;1274;72406;-68
2022/04/10 06:36:48;;;;;;;10.40;2.40;;;;;;;10.01;51.56;98882.00;104627;1275;69542;-68
2022/04/10 06:39:39;;;;;;;8.40;2.10;;;;;;;9.37;53.60;98882.58;104756;1274;72987;-69
2022/04/10 06:42:28;;;;;;;12.10;2.40;;;;;;;8.92;54.79;98890.36;104765;1274;59663;-69
2022/04/10 06:45:45;;;;;;;9.90;2.20;;;;;;;8.13;57.25;98896.67;104763;1274;59665;-70
2022/04/10 06:48:50;;;;;;;11.40;2.30;;;;;;;7.50;58.83;98902.34;104571;1275;73799;-70
2022/04/10 06:51:39;;;;;;;11.90;2.60;;;;;;;7.11;60.10;98905.98;104971;1276;69214;-69
2022/04/10 06:54:28;;;;;;;11.30;2.10;;;;;;;6.75;61.72;98905.91;104414;1275;72381;-69
2022/04/10 06:57:17;;;;;;;9.50;1.90;;;;;;;6.55;63.09;98910.02;104672;1274;59811;-70
2022/04/10 07:00:07;;;;;;;12.40;2.40;;;;;;;6.87;62.65;98917.30;104944;1274;60307;-68
2022/04/10 07:02:55;;;;;;;11.50;2.70;;;;;;;7.67;60.82;98913.05;104674;1274;73800;-69
2022/04/10 07:05:44;;;;;;;14.70;3.40;;;;;;;7.45;60.04;98919.83;104586;1276;69982;-68
2022/04/10 07:08:39;;;;;;;16.80;4.60;;;;;;;7.43;60.24;98923.89;104888;1274;74451;-70
2022/04/10 07:11:27;;;;;;;13.10;3.80;;;;;;;8.40;58.19;98926.29;104794;1274;59772;-67
2022/04/10 07:14:15;;;;;;;16.10;5.80;;;;;;;9.55;54.60;98926.95;104763;1275;59759;-70
2022/04/10 07:17:03;;;;;;;12.60;3.10;;;;;;;10.41;51.27;98925.69;104778;1277;73320;-71
2022/04/10 07:19:51;;;;;;;10.70;3.00;;;;;;;9.64;51.42;98936.62;104944;1274;67839;-74
2022/04/10 07:25:46;;;;;;;15.30;3.50;;;;;;;9.93;50.90;98942.12;104764;1274;59687;-70
2022/04/10 07:28:37;;;;;;;11.10;3.30;;;;;;;11.49;48.28;98936.63;104850;1274;60544;-69
2022/04/10 07:31:25;;;;;;;10.60;2.70;;;;;;;13.19;43.26;98932.23;104757;1274;74794;-72
2022/04/10 07:34:13;;;;;;;12.00;3.00;;;;;;;13.16;42.54;98943.94;104838;1275;68067;-69
2022/04/10 07:37:18;;;;;;;12.50;2.80;;;;;;;12.25;43.08;98948.71;104937;1274;73745;-70
2022/04/10 07:40:15;;;;;;;9.70;2.50;;;;;;;12.32;43.04;98947.90;104543;1275;59805;-67
2022/04/10 07:43:04;;;;;;;9.50;2.70;;;;;;;12.38;43.22;98958.56;104515;1275;61753;-70
2022/04/10 07:49:29;;;;;;;10.70;2.50;;;;;;;12.38;41.97;98966.77;104800;1274;67829;-69
2022/04/10 07:52:24;;;;;;;9.90;2.70;;;;;;;11.84;43.77;98972.02;104797;1275;74131;-70
2022/04/10 07:55:26;;;;;;;12.60;3.00;;;;;;;12.44;43.17;98974.85;104930;1274;59791;-70
2022/04/10 07:58:14;;;;;;;11.70;2.40;;;;;;;13.04;41.49;98980.08;104636;1274;60397;-67
2022/04/10 08:01:03;;;;;;;11.20;2.70;;;;;;;13.08;40.50;98973.67;104570;1275;73987;-70
2022/04/10 08:03:52;;;;;;;9.90;2.60;;;;;;;12.89;40.47;98982.38;104528;1274;68096;-69
2022/04/10 08:07:03;;;;;;;9.90;2.50;;;;;;;11.89;42.45;98988.27;104904;1274;72905;-69
2022/04/10 08:09:53;;;;;;;10.70;2.60;;;;;;;11.96;43.20;98993.91;104595;1274;59758;-68
2022/04/10 08:12:43;;;;;;;10.20;2.50;;;;;;;11.51;42.66;99005.50;104725;1274;60066;-68
2022/04/10 08:15:31;;;;;;;11.30;3.10;;;;;;;10.44;44.96;99005.45;104849;1274;73312;-68
2022/04/10 08:18:19;;;;;;;13.00;3.10;;;;;;;9.70;47.20;99012.92;104756;1274;67230;-68
2022/04/10 08:21:07;;;;;;;10.30;2.80;;;;;;;9.59;48.23;99020.25;105115;1274;72717;-70
2022/04/10 08:23:56;;;;;;;10.30;2.40;;;;;;;9.96;47.71;99016.91;105096;1274;59711;-70
2022/04/10 08:26:44;;;;;;;11.10;2.80;;;;;;;10.01;47.48;99012.58;104759;1274;60365;-70
2022/04/10 08:29:33;;;;;;;12.50;2.40;;;;;;;11.62;45.34;99013.34;104958;1274;72162;-70
2022/04/10 08:32:21;;;;;;;12.90;2.80;;;;;;;12.44;42.15;99016.34;104678;1274;67784;-68
2022/04/10 08:35:11;;;;;;;10.00;2.60;;;;;;;12.17;41.63;99026.70;104895;1274;73984;-69
2022/04/10 08:37:59;;;;;;;12.80;2.70;;;;;;;11.74;42.39;99028.79;104779;1274;60003;-67
2022/04/10 08:40:49;;;;;;;11.60;2.50;;;;;;;10.91;43.30;99035.45;104976;1274;60016;-68
2022/04/10 08:43:38;;;;;;;11.00;3.00;;;;;;;10.21;45.27;99050.42;104723;1274;74836;-69
2022/04/10 08:46:27;;;;;;;9.10;2.40;;;;;;;9.62;46.64;99049.19;104920;1274;67956;-69
2022/04/10 08:49:15;;;;;;;12.60;2.70;;;;;;;9.15;47.89;99058.52;104914;1274;72628;-70
2022/04/10 08:52:04;;;;;;;9.90;2.70;;;;;;;9.21;48.72;99056.38;104677;1274;59725;-69
2022/04/10 08:54:52;;;;;;;11.90;2.80;;;;;;;9.36;47.65;99059.38;104652;1275;59705;-71
2022/04/10 08:57:40;;;;;;;11.90;2.40;;;;;;;9.03;47.03;99063.58;104633;1274;72453;-70
2022/04/10 09:00:28;;;;;;;11.10;2.30;;;;;;;9.12;46.87;99067.11;104728;1274;68676;-68
2022/04/10 09:03:18;;;;;;;10.60;2.10;;;;;;;9.38;45.33;99068.75;104688;1274;73876;-70
2022/04/10 09:06:10;;;;;;;12.30;2.50;;;;;;;9.25;45.00;99067.89;104650;1274;222349;-68
2022/04/10 09:09:18;;;;;;;13.10;2.80;;;;;;;9.01;46.19;99074.55;104673;1274;61856;-70
2022/04/10 09:12:12;;;;;;;10.70;2.60;;;;;;;9.55;45.19;99071.47;104541;1274;73200;-68
2022/04/10 09:15:04;;;;;;;12.70;2.80;;;;;;;10.82;41.51;99067.71;104824;1274;68543;-68
2022/04/10 09:17:55;;;;;;;11.20;2.40;;;;;;;11.49;39.67;99063.21;104949;1274;73957;-71
2022/04/10 09:20:43;;;;;;;13.00;2.40;;;;;;;11.26;39.42;99065.95;104612;1274;59759;-66
2022/04/10 09:23:31;;;;;;;10.90;2.60;;;;;;;11.13;39.65;99072.24;104660;1274;60566;-68
2022/04/10 09:26:19;;;;;;;12.60;2.30;;;;;;;10.71;40.04;99090.39;104727;1274;74904;-69
2022/04/10 09:29:06;;;;;;;10.30;2.50;;;;;;;11.20;40.29;99083.31;104730;1274;68771;-68
2022/04/10 09:31:54;;;;;;;10.70;2.80;;;;;;;11.90;39.25;99085.02;104721;1274;72112;-68
2022/04/10 09:34:56;;;;;;;11.70;2.20;;;;;;;11.92;36.92;99081.52;104681;1274;59807;-72
2022/04/10 09:37:56;;;;;;;10.70;2.20;;;;;;;12.12;36.84;99081.00;104612;1275;59871;-68
2022/04/10 09:40:45;;;;;;;12.40;2.60;;;;;;;11.70;37.31;99094.46;104757;1275;73291;-68
2022/04/10 09:43:33;;;;;;;9.90;2.30;;;;;;;11.72;36.89;99092.52;104852;1274;68433;-68
2022/04/10 09:46:21;;;;;;;9.50;2.40;;;;;;;12.85;35.00;99081.75;104710;1275;73156;-69
2022/04/10 09:49:18;;;;;;;12.80;2.40;;;;;;;14.06;33.40;99080.29;104833;1275;59656;-73
2022/04/10 09:52:12;;;;;;;9.10;2.40;;;;;;;15.30;31.00;99075.80;104762;1275;62097;-69
2022/04/10 09:55:00;;;;;;;8.30;2.50;;;;;;;16.48;29.05;99067.81;105111;1274;72984;-73
2022/04/10 09:57:59;;;;;;;8.50;1.80;;;;;;;17.19;26.97;99073.19;104822;1274;66861;-69
2022/04/10 10:00:51;;;;;;;9.10;1.90;;;;;;;18.10;25.64;99075.45;104808;1274;71595;-70
2022/04/10 10:03:41;;;;;;;10.40;2.30;;;;;;;18.40;24.90;99085.29;104664;1274;59740;-74
2022/04/10 10:06:29;;;;;;;8.80;2.10;;;;;;;18.73;23.98;99077.55;104969;1274;60537;-71
2022/04/10 10:09:18;;;;;;;7.60;2.20;;;;;;;18.03;24.79;99075.55;104913;1275;73400;-70
2022/04/10 10:12:08;;;;;;;10.20;2.00;;;;;;;17.28;25.55;99077.98;104797;1275;66810;-71
2022/04/10 10:14:56;;;;;;;8.80;2.10;;;;;;;16.22;27.14;99085.23;104742;1274;73813;-70
2022/04/10 10:17:44;;;;;;;8.80;1.80;;;;;;;15.11;28.35;99087.11;104841;1274;59724;-72
2022/04/10 10:20:33;;;;;;;9.50;2.10;;;;;;;14.18;30.43;99097.87;104889;1274;60038;-73
2022/04/10 10:23:22;;;;;;;8.90;1.80;;;;;;;14.01;31.53;99095.88;105001;1275;73303;-68
2022/04/10 10:26:53;;;;;;;8.80;2.30;;;;;;;14.73;29.26;99094.89;104837;1275;69726;-69
2022/04/10 10:30:09;;;;;;;9.90;2.30;;;;;;;14.50;29.50;99101.45;104814;1274;73633;-72
2022/04/10 10:33:19;;;;;;;10.80;1.90;;;;;;;14.53;29.87;99107.04;104571;1275;59665;-69
2022/04/10 10:36:10;;;;;;;9.50;1.80;;;;;;;14.61;30.64;99108.48;104691;1274;60797;-68
2022/04/10 10:38:59;;;;;;;8.80;2.10;;;;;;;14.38;30.03;99108.86;104712;1274;73755;-69
2022/04/10 10:41:51;;;;;;;8.90;2.20;;;;;;;14.78;29.46;99110.07;104833;1275;69665;-67
2022/04/10 10:44:43;;;;;;;12.60;3.30;;;;;;;14.52;29.72;99120.56;105108;1274;73685;-71
2022/04/10 10:47:31;;;;;;;9.80;2.30;;;;;;;13.97;31.13;99109.71;105112;1274;60081;-70
2022/04/10 10:50:31;;;;;;;9.50;2.10;;;;;;;13.91;31.23;99112.06;105017;1274;60710;-69
2022/04/10 10:53:55;;;;;;;9.50;2.10;;;;;;;14.92;30.29;99116.51;104889;1274;71801;-71
2022/04/10 10:56:46;;;;;;;9.40;2.80;;;;;;;15.10;29.52;99112.71;104930;1274;68027;-72
2022/04/10 10:59:42;;;;;;;10.00;2.80;;;;;;;14.57;30.53;99118.21;104978;1274;72638;-68
2022/04/10 11:02:35;;;;;;;10.20;2.00;;;;;;;13.77;32.02;99121.19;104845;1274;60784;-72
2022/04/10 11:05:39;;;;;;;10.00;2.00;;;;;;;12.94;33.57;99124.77;105199;1274;61302;-71
2022/04/10 11:08:38;;;;;;;11.60;2.60;;;;;;;13.64;33.50;99126.11;104852;1274;73249;-72
2022/04/10 11:11:38;;;;;;;10.00;2.40;;;;;;;14.95;30.87;99131.00;104738;1275;67950;-70
2022/04/10 11:14:50;;;;;;;10.70;2.30;;;;;;;15.66;29.07;99118.25;104728;1274;71514;-70
2022/04/10 11:17:39;;;;;;;12.90;2.50;;;;;;;15.90;27.62;99115.52;104631;1274;59835;-68
2022/04/10 11:20:28;;;;;;;18.20;6.10;;;;;;;16.08;27.57;99117.95;104801;1274;61549;-68
2022/04/10 11:23:16;;;;;;;21.20;6.10;;;;;;;16.43;26.56;99125.42;104964;1274;74105;-71
2022/04/10 11:26:11;;;;;;;22.70;8.80;;;;;;;16.27;26.20;99123.10;105052;1274;67598;-70
2022/04/10 11:29:05;;;;;;;73.50;28.40;;;;;;;15.83;26.82;99127.61;104597;1275;73150;-71
2022/04/10 11:31:53;;;;;;;63.40;18.40;;;;;;;15.28;27.06;99145.21;104498;1274;59796;-70
2022/04/10 11:34:41;;;;;;;19.90;5.20;;;;;;;15.28;27.32;99144.83;104770;1274;62092;-71
2022/04/10 11:37:39;;;;;;;13.50;2.70;;;;;;;14.71;27.91;99140.31;104046;1274;1003079;-70
2022/04/10 11:40:31;;;;;;;19.40;4.00;;;;;;;14.11;29.24;99142.23;104571;1275;68728;-70
2022/04/10 11:43:21;;;;;;;10.90;2.70;;;;;;;13.98;29.88;99143.82;104663;1274;73479;-69
2022/04/10 11:46:10;;;;;;;10.50;2.90;;;;;;;13.60;30.42;99148.20;104720;1274;59779;-69
2022/04/10 11:48:58;;;;;;;11.60;2.90;;;;;;;13.14;31.66;99154.47;104780;1274;62071;-70
2022/04/10 11:52:07;;;;;;;11.50;2.40;;;;;;;12.78;33.04;99155.67;104761;1275;73943;-71
2022/04/10 11:54:56;;;;;;;10.70;2.30;;;;;;;12.63;34.07;99162.80;104767;1274;68343;-70
2022/04/10 11:57:44;;;;;;;11.20;2.10;;;;;;;12.85;33.39;99159.92;104671;1273;74445;-72
2022/04/10 12:00:32;;;;;;;10.20;2.00;;;;;;;12.96;32.48;99152.00;104826;1274;60459;-74
2022/04/10 12:03:23;;;;;;;9.00;2.20;;;;;;;13.26;32.53;99152.50;105121;1275;61847;-70
2022/04/10 12:06:19;;;;;;;8.70;1.90;;;;;;;13.14;32.79;99157.00;104733;1274;73900;-70
2022/04/10 12:09:08;;;;;;;8.10;2.20;;;;;;;12.98;33.11;99164.83;104999;1274;68537;-71
2022/04/10 12:11:56;;;;;;;8.90;1.70;;;;;;;12.62;32.94;99149.42;104951;1274;73160;-69
2022/04/10 12:14:50;;;;;;;8.60;2.00;;;;;;;12.15;34.36;99158.31;104551;1274;59753;-70
2022/04/10 12:17:38;;;;;;;10.20;2.00;;;;;;;11.88;35.79;99153.33;104561;1274;60276;-72
2022/04/10 12:20:46;;;;;;;8.90;2.20;;;;;;;11.62;36.57;99162.75;104759;1274;74782;-69
2022/04/10 12:23:34;;;;;;;10.40;1.90;;;;;;;11.35;37.16;99174.37;104795;1274;68631;-69
2022/04/10 12:26:26;;;;;;;10.70;2.20;;;;;;;10.92;37.86;99168.80;104928;1274;74684;-71
2022/04/10 12:29:15;;;;;;;7.50;1.80;;;;;;;10.57;38.07;99164.55;104753;1274;59796;-70
2022/04/10 12:32:08;;;;;;;7.10;1.90;;;;;;;10.44;37.89;99168.58;104892;1275;59861;-69
2022/04/10 12:35:09;;;;;;;8.40;1.90;;;;;;;10.13;38.49;99179.50;104495;1274;74756;-69
2022/04/10 12:38:04;;;;;;;8.70;1.60;;;;;;;9.77;39.80;99171.04;105005;1274;68474;-68
2022/04/10 12:41:05;;;;;;;9.30;1.90;;;;;;;9.58;41.61;99189.47;104934;1274;73185;-75
2022/04/10 12:44:03;;;;;;;7.20;1.80;;;;;;;9.09;45.22;99214.52;105000;1274;59671;-70
2022/04/10 12:46:51;;;;;;;8.80;1.60;;;;;;;8.55;45.47;99221.52;104933;1274;59723;-70
2022/04/10 12:49:40;;;;;;;7.50;1.90;;;;;;;7.89;46.07;99231.97;104944;1275;74167;-69
2022/04/10 12:52:28;;;;;;;7.60;1.70;;;;;;;7.36;47.78;99240.17;105100;1274;66802;-70
2022/04/10 12:55:30;;;;;;;8.10;1.70;;;;;;;6.97;49.54;99237.33;104799;1274;73285;-69
2022/04/10 12:58:20;;;;;;;7.80;1.90;;;;;;;7.03;51.09;99236.84;104762;1274;59785;-70
2022/04/10 13:01:32;;;;;;;7.10;1.80;;;;;;;7.25;51.65;99233.38;104847;1274;60121;-69
2022/04/10 13:04:30;;;;;;;7.40;1.90;;;;;;;7.56;51.68;99235.98;104834;1274;74099;-69
2022/04/10 13:07:17;;;;;;;7.50;1.80;;;;;;;7.71;51.71;99230.59;105739;1274;65919;-68
2022/04/10 13:10:06;;;;;;;9.10;1.80;;;;;;;7.91;51.71;99227.38;106493;1274;71621;-67
2022/04/10 13:13:08;;;;;;;10.70;1.90;;;;;;;7.93;50.28;99226.52;105852;1274;59821;-71
2022/04/10 13:15:57;;;;;;;7.10;1.70;;;;;;;7.87;49.03;99223.11;105124;1274;60558;-69
2022/04/10 13:18:49;;;;;;;7.50;1.90;;;;;;;7.78;48.18;99229.08;104956;1274;73131;-68
2022/04/10 13:21:39;;;;;;;9.80;2.00;;;;;;;7.80;47.30;99227.71;105117;1274;69325;-69
2022/04/10 13:24:27;;;;;;;8.20;1.80;;;;;;;7.83;47.67;99233.66;104722;1274;72691;-68